createdAt,value
2022-11-27T00:01:30.433Z,3.85
2022-11-27T00:03:58.177Z,3.96
2022-11-27T00:06:27.359Z,3.84
2022-11-27T00:08:57.867Z,4.03
2022-11-27T00:11:27.793Z,3.96
2022-11-27T00:13:55.894Z,3.97
2022-11-27T00:16:24.180Z,3.74
2022-11-27T00:18:52.382Z,4.01
2022-11-27T00:21:28.258Z,3.99
2022-11-27T00:23:57.514Z,3.83
2022-11-27T00:26:25.868Z,3.99
2022-11-27T00:28:55.166Z,3.98
2022-11-27T00:31:31.753Z,3.94
2022-11-27T00:34:02.127Z,3.94
2022-11-27T00:36:30.451Z,3.82
2022-11-27T00:38:57.651Z,3.99
2022-11-27T00:41:27.725Z,3.90
2022-11-27T00:43:56.654Z,3.98
2022-11-27T00:46:29.052Z,3.91
2022-11-27T00:49:00.846Z,3.80
2022-11-27T00:51:29.305Z,3.88
2022-11-27T00:53:58.186Z,4.06
2022-11-27T00:56:30.404Z,4.08
2022-11-27T00:58:57.958Z,3.98
2022-11-27T01:01:29.077Z,4.06
2022-11-27T01:04:00.163Z,4.08
2022-11-27T01:06:28.722Z,4.07
2022-11-27T01:08:56.344Z,4.18
2022-11-27T01:11:27.354Z,4.12
2022-11-27T01:13:57.317Z,4.12
2022-11-27T01:16:28.255Z,4.14
2022-11-27T01:19:00.530Z,4.21
2022-11-27T01:21:32.812Z,4.15
2022-11-27T01:24:01.225Z,4.26
2022-11-27T01:26:33.970Z,4.27
2022-11-27T01:29:01.462Z,4.31
2022-11-27T01:31:31.827Z,4.26
2022-11-27T01:34:06.162Z,4.27
2022-11-27T01:36:34.728Z,4.30
2022-11-27T01:39:02.981Z,4.29
2022-11-27T01:41:33.296Z,4.19
2022-11-27T01:44:24.041Z,4.32
2022-11-27T01:47:04.352Z,4.14
2022-11-27T01:49:39.217Z,4.29
2022-11-27T01:52:13.076Z,4.28
2022-11-27T01:55:02.168Z,4.34
2022-11-27T01:57:36.267Z,4.24
2022-11-27T02:00:06.641Z,4.24
2022-11-27T02:02:40.583Z,4.22
2022-11-27T02:05:09.019Z,4.19
2022-11-27T02:07:36.838Z,4.14
2022-11-27T02:10:07.117Z,4.13
2022-11-27T02:12:40.395Z,4.15
2022-11-27T02:15:14.414Z,4.15
2022-11-27T02:18:04.329Z,4.14
2022-11-27T02:20:48.785Z,4.19
2022-11-27T02:23:46.821Z,4.08
2022-11-27T02:26:16.956Z,4.10
2022-11-27T02:29:03.618Z,4.25
2022-11-27T02:31:55.507Z,4.22
2022-11-27T02:34:50.292Z,4.26
2022-11-27T02:37:36.501Z,4.24
2022-11-27T02:40:22.509Z,4.29
2022-11-27T02:42:53.757Z,4.28
2022-11-27T02:45:29.510Z,4.25
2022-11-27T02:47:58.076Z,4.28
2022-11-27T02:50:27.520Z,4.32
2022-11-27T02:53:01.060Z,4.38
2022-11-27T02:55:31.027Z,4.38
2022-11-27T02:58:02.780Z,4.30
2022-11-27T03:00:31.326Z,4.41
2022-11-27T03:03:06.338Z,4.42
2022-11-27T03:05:38.558Z,4.46
2022-11-27T03:08:10.506Z,4.34
2022-11-27T03:10:49.505Z,4.50
2022-11-27T03:13:17.371Z,4.50
2022-11-27T03:16:28.312Z,4.49
2022-11-27T03:19:22.071Z,4.56
2022-11-27T03:21:53.816Z,4.59
2022-11-27T03:24:21.101Z,4.54
2022-11-27T03:26:49.091Z,4.57
2022-11-27T03:29:32.476Z,4.60
2022-11-27T03:32:01.132Z,4.61
2022-11-27T03:34:33.091Z,4.61
2022-11-27T03:37:01.396Z,4.65
2022-11-27T03:39:30.104Z,4.65
2022-11-27T03:42:07.594Z,4.70
2022-11-27T03:45:08.678Z,4.69
2022-11-27T03:48:01.757Z,4.69
2022-11-27T03:50:50.753Z,4.71
2022-11-27T03:53:46.039Z,4.67
2022-11-27T03:56:40.296Z,4.61
2022-11-27T03:59:18.365Z,4.54
2022-11-27T04:01:45.937Z,4.51
2022-11-27T04:04:13.630Z,4.53
2022-11-27T04:06:40.995Z,4.50
2022-11-27T04:09:08.359Z,4.44
2022-11-27T04:11:37.698Z,4.45
2022-11-27T04:14:05.232Z,4.42
2022-11-27T04:16:33.053Z,4.42
2022-11-27T04:19:00.309Z,4.39
2022-11-27T04:21:27.614Z,4.38
2022-11-27T04:23:54.799Z,4.38
2022-11-27T04:26:22.341Z,4.34
2022-11-27T04:28:52.418Z,4.31
2022-11-27T04:31:19.808Z,4.33
2022-11-27T04:33:47.079Z,4.34
2022-11-27T04:36:14.342Z,4.39
2022-11-27T04:38:42.120Z,4.39
2022-11-27T04:41:10.346Z,4.41
2022-11-27T04:43:38.012Z,4.46
2022-11-27T04:46:05.402Z,4.53
2022-11-27T04:48:34.000Z,4.61
2022-11-27T04:51:01.181Z,4.57
2022-11-27T04:53:28.453Z,4.62
2022-11-27T04:55:55.736Z,4.62
2022-11-27T04:58:24.067Z,4.65
2022-11-27T05:00:52.117Z,4.66
2022-11-27T05:03:19.457Z,4.63
2022-11-27T05:05:57.100Z,4.64
2022-11-27T05:08:25.495Z,4.67
2022-11-27T05:11:11.427Z,4.63
2022-11-27T05:13:39.510Z,4.57
2022-11-27T05:16:07.179Z,4.57
2022-11-27T05:18:35.236Z,4.56
2022-11-27T05:21:07.112Z,4.54
2022-11-27T05:23:35.763Z,4.51
2022-11-27T05:26:03.755Z,4.48
2022-11-27T05:28:31.078Z,4.52
2022-11-27T05:30:58.677Z,4.49
2022-11-27T05:33:26.607Z,4.46
2022-11-27T05:35:53.970Z,4.48
2022-11-27T05:38:21.681Z,4.38
2022-11-27T05:40:49.033Z,4.44
2022-11-27T05:43:16.443Z,4.47
2022-11-27T05:45:43.783Z,4.40
2022-11-27T05:48:10.941Z,4.42
2022-11-27T05:50:38.308Z,4.38
2022-11-27T05:53:05.465Z,4.35
2022-11-27T05:55:33.166Z,4.34
2022-11-27T05:58:00.415Z,4.28
2022-11-27T06:00:27.818Z,4.31
2022-11-27T06:02:56.812Z,4.31
2022-11-27T06:05:24.045Z,4.19
2022-11-27T06:07:51.523Z,4.23
2022-11-27T06:10:18.792Z,4.21
2022-11-27T06:12:46.376Z,4.30
2022-11-27T06:15:13.632Z,4.30
2022-11-27T06:17:40.783Z,4.32
2022-11-27T06:20:09.797Z,4.26
2022-11-27T06:22:36.908Z,4.37
2022-11-27T06:25:04.965Z,4.39
2022-11-27T06:27:36.393Z,4.39
2022-11-27T06:30:05.236Z,4.41
2022-11-27T06:32:33.086Z,4.46
2022-11-27T06:35:00.508Z,4.47
2022-11-27T06:37:28.062Z,4.39
2022-11-27T06:39:55.334Z,4.41
2022-11-27T06:42:23.114Z,4.41
2022-11-27T06:44:50.299Z,4.45
2022-11-27T06:47:19.121Z,4.41
2022-11-27T06:49:46.727Z,4.47
2022-11-27T06:52:13.905Z,4.45
2022-11-27T06:54:41.539Z,4.49
2022-11-27T06:57:08.853Z,4.52
2022-11-27T06:59:35.979Z,4.50
2022-11-27T07:02:03.445Z,4.53
2022-11-27T07:04:30.682Z,4.57
2022-11-27T07:06:59.504Z,4.51
2022-11-27T07:09:27.220Z,4.55
2022-11-27T07:11:54.610Z,4.57
2022-11-27T07:14:22.000Z,4.59
2022-11-27T07:16:49.189Z,4.59
2022-11-27T07:19:16.863Z,4.52
2022-11-27T07:21:44.782Z,4.58
2022-11-27T07:24:16.037Z,4.21
2022-11-27T07:26:44.604Z,4.24
2022-11-27T07:29:27.882Z,4.37
2022-11-27T07:31:56.336Z,4.40
2022-11-27T07:34:24.264Z,4.48
2022-11-27T07:36:52.729Z,4.55
2022-11-27T07:39:46.333Z,4.38
2022-11-27T07:42:38.005Z,4.36
2022-11-27T07:45:02.589Z,4.66
2022-11-27T07:47:30.781Z,4.70
2022-11-27T07:50:00.589Z,4.72
2022-11-27T07:52:38.081Z,4.65
2022-11-27T07:55:12.981Z,4.73
2022-11-27T07:57:42.971Z,4.75
2022-11-27T08:00:10.966Z,4.77
2022-11-27T08:02:39.028Z,4.81
2022-11-27T08:05:13.504Z,4.90
2022-11-27T08:07:42.712Z,4.90
2022-11-27T08:10:10.296Z,4.91
2022-11-27T08:12:38.072Z,4.92
2022-11-27T08:15:06.006Z,4.96
2022-11-27T08:17:33.675Z,4.97
2022-11-27T08:20:01.266Z,4.99
2022-11-27T08:22:28.819Z,5.02
2022-11-27T08:24:56.064Z,5.04
2022-11-27T08:27:23.519Z,5.09
2022-11-27T08:29:51.070Z,5.11
2022-11-27T08:32:18.343Z,5.17
2022-11-27T08:34:45.678Z,5.22
2022-11-27T08:37:12.943Z,5.26
2022-11-27T08:39:40.182Z,5.32
2022-11-27T08:42:07.535Z,5.35
2022-11-27T08:44:34.978Z,5.37
2022-11-27T08:47:03.725Z,5.43
2022-11-27T08:49:31.805Z,5.42
2022-11-27T08:52:03.161Z,5.66
2022-11-27T08:54:31.025Z,5.84
2022-11-27T08:56:59.742Z,6.05
2022-11-27T08:59:27.278Z,5.98
2022-11-27T09:01:54.970Z,5.99
2022-11-27T09:04:22.568Z,6.06
2022-11-27T09:06:58.114Z,6.17
2022-11-27T09:09:26.248Z,6.15
2022-11-27T09:11:55.722Z,6.16
2022-11-27T09:14:23.807Z,6.13
2022-11-27T09:16:53.966Z,6.29
2022-11-27T09:19:22.435Z,6.37
2022-11-27T09:21:51.294Z,6.40
2022-11-27T09:24:21.946Z,6.46
2022-11-27T09:26:49.914Z,6.47
2022-11-27T09:29:17.175Z,6.51
2022-11-27T09:31:44.914Z,6.56
2022-11-27T09:34:15.232Z,6.49
2022-11-27T09:36:42.408Z,6.56
2022-11-27T09:39:09.633Z,6.55
2022-11-27T09:41:55.885Z,6.62
2022-11-27T09:44:39.979Z,6.65
2022-11-27T09:47:20.651Z,6.72
2022-11-27T09:49:52.837Z,6.80
2022-11-27T09:52:19.959Z,6.92
2022-11-27T09:55:00.814Z,7.04
2022-11-27T09:57:39.793Z,7.04
2022-11-27T10:00:18.719Z,7.09
2022-11-27T10:02:46.497Z,7.14
2022-11-27T10:05:17.627Z,7.19
2022-11-27T10:08:21.014Z,7.27
2022-11-27T10:10:54.227Z,7.28
2022-11-27T10:13:55.843Z,7.35
2022-11-27T10:16:53.971Z,7.47
2022-11-27T10:19:36.851Z,7.53
2022-11-27T10:22:24.944Z,7.43
2022-11-27T10:25:32.308Z,7.63
2022-11-27T10:28:21.235Z,7.66
2022-11-27T10:30:54.955Z,7.65
2022-11-27T10:33:34.027Z,7.82
2022-11-27T10:36:07.105Z,7.77
2022-11-27T10:38:39.996Z,7.75
2022-11-27T10:41:50.637Z,7.87
2022-11-27T10:44:27.900Z,7.88
2022-11-27T10:47:08.881Z,7.94
2022-11-27T10:49:49.314Z,8.01
2022-11-27T10:52:20.528Z,8.03
2022-11-27T10:54:56.180Z,8.16
2022-11-27T10:57:44.699Z,8.01
2022-11-27T11:00:40.384Z,8.07
2022-11-27T11:03:19.226Z,7.99
2022-11-27T11:06:20.466Z,8.14
2022-11-27T11:09:02.444Z,8.38
2022-11-27T11:11:30.380Z,8.46
2022-11-27T11:13:58.149Z,8.49
2022-11-27T11:16:35.220Z,8.53
2022-11-27T11:19:06.803Z,8.54
2022-11-27T11:21:40.971Z,8.33
2022-11-27T11:24:31.168Z,8.60
2022-11-27T11:27:17.288Z,8.76
2022-11-27T11:29:50.387Z,8.77
2022-11-27T11:32:25.889Z,8.79
2022-11-27T11:35:02.940Z,8.96
2022-11-27T11:37:50.031Z,8.89
2022-11-27T11:40:24.667Z,9.04
2022-11-27T11:43:00.445Z,9.04
2022-11-27T11:45:32.926Z,9.11
2022-11-27T11:48:04.019Z,9.06
2022-11-27T11:50:45.232Z,9.12
2022-11-27T11:53:36.634Z,9.20
2022-11-27T11:56:16.283Z,9.15
2022-11-27T11:59:17.393Z,9.22
2022-11-27T12:01:59.776Z,9.26
2022-11-27T12:05:11.957Z,9.35
2022-11-27T12:08:04.044Z,9.46
2022-11-27T12:10:55.580Z,9.49
2022-11-27T12:13:47.348Z,9.45
2022-11-27T12:16:36.753Z,9.41
2022-11-27T12:19:33.698Z,9.59
2022-11-27T12:22:44.363Z,9.62
2022-11-27T12:25:17.282Z,9.64
2022-11-27T12:28:19.043Z,9.66
2022-11-27T12:30:56.687Z,9.66
2022-11-27T12:33:56.274Z,9.63
2022-11-27T12:36:42.432Z,9.71
2022-11-27T12:39:33.295Z,9.83
2022-11-27T12:42:22.171Z,9.77
2022-11-27T12:45:22.520Z,9.90
2022-11-27T12:47:58.419Z,9.83
2022-11-27T12:50:42.300Z,9.93
2022-11-27T12:53:25.189Z,9.95
2022-11-27T12:56:16.187Z,10.02
2022-11-27T12:58:47.388Z,9.97
2022-11-27T13:01:25.084Z,9.94
2022-11-27T13:04:24.191Z,9.91
2022-11-27T13:07:06.857Z,10.13
2022-11-27T13:09:42.373Z,10.10
2022-11-27T13:12:17.802Z,10.24
2022-11-27T13:14:52.967Z,10.25
2022-11-27T13:17:21.419Z,10.25
2022-11-27T13:19:51.705Z,10.11
2022-11-27T13:22:32.774Z,10.20
2022-11-27T13:25:04.091Z,10.14
2022-11-27T13:27:35.685Z,10.25
2022-11-27T13:30:10.187Z,10.40
2022-11-27T13:32:42.514Z,10.41
2022-11-27T13:35:43.577Z,10.45
2022-11-27T13:38:15.580Z,10.31
2022-11-27T13:40:47.189Z,10.51
2022-11-27T13:43:34.918Z,10.50
2022-11-27T13:46:22.826Z,10.33
2022-11-27T13:49:01.701Z,10.51
2022-11-27T13:51:33.266Z,10.45
2022-11-27T13:54:16.258Z,10.66
2022-11-27T13:56:44.543Z,10.34
2022-11-27T13:59:17.682Z,10.35
2022-11-27T14:02:05.510Z,10.54
2022-11-27T14:04:34.901Z,10.44
2022-11-27T14:07:10.738Z,10.50
2022-11-27T14:09:47.858Z,10.48
2022-11-27T14:12:26.613Z,10.45
2022-11-27T14:15:19.474Z,10.43
2022-11-27T14:17:49.691Z,10.46
2022-11-27T14:20:17.114Z,10.35
2022-11-27T14:23:10.583Z,10.32
2022-11-27T14:25:39.849Z,10.55
2022-11-27T14:28:19.996Z,10.53
2022-11-27T14:30:53.217Z,10.48
2022-11-27T14:33:25.942Z,10.28
2022-11-27T14:35:56.122Z,10.33
2022-11-27T14:38:25.866Z,10.37
2022-11-27T14:41:09.945Z,10.28
2022-11-27T14:43:37.763Z,10.37
2022-11-27T14:46:09.720Z,10.16
2022-11-27T14:48:41.739Z,10.31
2022-11-27T14:51:24.217Z,10.15
2022-11-27T14:53:58.685Z,10.18
2022-11-27T14:56:33.094Z,10.10
2022-11-27T14:59:01.774Z,10.03
2022-11-27T15:01:35.660Z,10.03
2022-11-27T15:04:26.713Z,10.03
2022-11-27T15:06:55.781Z,10.02
2022-11-27T15:09:33.830Z,9.95
2022-11-27T15:12:29.934Z,10.05
2022-11-27T15:14:57.097Z,9.94
2022-11-27T15:17:28.877Z,9.99
2022-11-27T15:19:58.170Z,10.07
2022-11-27T15:22:26.531Z,9.98
2022-11-27T15:25:02.868Z,9.83
2022-11-27T15:27:46.017Z,9.92
2022-11-27T15:30:18.420Z,9.93
2022-11-27T15:32:55.566Z,9.83
2022-11-27T15:35:35.557Z,9.80
2022-11-27T15:38:11.613Z,9.70
2022-11-27T15:40:42.684Z,9.75
2022-11-27T15:43:17.481Z,9.70
2022-11-27T15:45:45.406Z,9.68
2022-11-27T15:48:20.909Z,9.64
2022-11-27T15:50:51.626Z,9.66
2022-11-27T15:53:20.445Z,9.55
2022-11-27T15:55:48.725Z,9.53
2022-11-27T15:58:16.969Z,9.45
2022-11-27T16:00:45.342Z,9.42
2022-11-27T16:03:13.484Z,9.37
2022-11-27T16:05:41.932Z,9.36
2022-11-27T16:08:11.771Z,9.43
2022-11-27T16:10:43.368Z,9.43
2022-11-27T16:13:10.636Z,9.37
2022-11-27T16:15:37.929Z,9.33
2022-11-27T16:18:07.420Z,9.30
2022-11-27T16:20:35.407Z,9.22
2022-11-27T16:23:02.738Z,9.24
2022-11-27T16:25:30.714Z,9.20
2022-11-27T16:28:04.157Z,9.13
2022-11-27T16:30:31.946Z,8.94
2022-11-27T16:32:59.896Z,9.16
2022-11-27T16:35:28.217Z,9.06
2022-11-27T16:37:56.506Z,8.98
2022-11-27T16:40:27.929Z,9.01
2022-11-27T16:42:55.391Z,8.87
2022-11-27T16:45:25.342Z,8.96
2022-11-27T16:47:54.255Z,8.88
2022-11-27T16:50:21.837Z,8.88
2022-11-27T16:52:54.406Z,8.81
2022-11-27T16:55:30.315Z,8.84
2022-11-27T16:57:59.540Z,8.81
2022-11-27T17:00:29.063Z,8.77
2022-11-27T17:02:57.829Z,8.74
2022-11-27T17:05:25.544Z,8.69
2022-11-27T17:07:53.552Z,8.67
2022-11-27T17:10:21.198Z,8.64
2022-11-27T17:12:49.036Z,8.56
2022-11-27T17:15:18.640Z,8.59
2022-11-27T17:17:49.096Z,8.53
2022-11-27T17:20:19.448Z,8.51
2022-11-27T17:22:49.355Z,8.52
2022-11-27T17:25:18.188Z,8.54
2022-11-27T17:27:46.254Z,8.57
2022-11-27T17:30:15.205Z,8.48
2022-11-27T17:32:43.124Z,8.56
2022-11-27T17:35:10.680Z,8.57
2022-11-27T17:37:38.004Z,8.56
2022-11-27T17:40:06.475Z,8.54
2022-11-27T17:42:33.793Z,8.55
2022-11-27T17:45:01.963Z,8.39
2022-11-27T17:47:29.181Z,8.43
2022-11-27T17:49:56.294Z,8.50
2022-11-27T17:52:23.833Z,8.57
2022-11-27T17:54:51.207Z,8.39
2022-11-27T17:57:19.023Z,8.45
2022-11-27T17:59:46.586Z,8.43
2022-11-27T18:02:14.095Z,8.39
2022-11-27T18:04:43.069Z,8.31
2022-11-27T18:07:10.725Z,8.53
2022-11-27T18:09:38.670Z,8.44
2022-11-27T18:12:09.282Z,8.31
2022-11-27T18:14:36.632Z,8.30
2022-11-27T18:17:05.588Z,8.28
2022-11-27T18:19:33.451Z,8.25
2022-11-27T18:22:00.855Z,8.31
2022-11-27T18:24:29.277Z,8.28
2022-11-27T18:27:12.288Z,8.31
2022-11-27T18:29:45.136Z,8.31
2022-11-27T18:32:14.459Z,8.26
2022-11-27T18:34:42.802Z,8.35
2022-11-27T18:37:10.531Z,8.32
2022-11-27T18:39:39.520Z,8.28
2022-11-27T18:42:08.718Z,8.43
2022-11-27T18:44:44.442Z,8.33
2022-11-27T18:47:13.517Z,8.32
2022-11-27T18:49:41.547Z,8.34
2022-11-27T18:52:10.002Z,8.53
2022-11-27T18:54:38.048Z,8.45
2022-11-27T18:57:07.298Z,8.39
2022-11-27T18:59:35.669Z,8.39
2022-11-27T19:02:04.417Z,8.24
2022-11-27T19:04:31.849Z,8.43
2022-11-27T19:06:59.532Z,8.46
2022-11-27T19:09:30.081Z,8.44
2022-11-27T19:11:58.255Z,8.49
2022-11-27T19:14:25.543Z,8.50
2022-11-27T19:16:53.206Z,8.56
2022-11-27T19:22:10.026Z,8.52
2022-11-27T19:24:39.739Z,8.55
2022-11-27T19:27:07.443Z,8.57
2022-11-27T19:29:35.815Z,8.40
2022-11-27T19:32:04.773Z,8.62
2022-11-27T19:34:32.801Z,8.64
2022-11-27T19:37:00.263Z,8.81
2022-11-27T19:39:28.875Z,8.75
2022-11-27T19:42:01.236Z,8.68
2022-11-27T19:44:30.119Z,8.70
2022-11-27T19:46:57.858Z,8.65
2022-11-27T19:49:27.017Z,8.63
2022-11-27T19:51:54.852Z,8.73
2022-11-27T19:54:23.901Z,8.76
2022-11-27T19:56:52.209Z,8.76
2022-11-27T19:59:24.384Z,8.82
2022-11-27T20:01:54.261Z,8.79
2022-11-27T20:04:26.213Z,8.88
2022-11-27T20:06:53.893Z,8.91
2022-11-27T20:09:22.544Z,8.89
2022-11-27T20:11:50.051Z,8.86
2022-11-27T20:14:17.836Z,8.94
2022-11-27T20:16:45.816Z,8.96
2022-11-27T20:19:13.739Z,9.03
2022-11-27T20:21:42.641Z,8.92
2022-11-27T20:24:10.505Z,8.97
2022-11-27T20:26:42.643Z,8.91
2022-11-27T20:29:12.020Z,9.00
2022-11-27T20:31:41.669Z,8.96
2022-11-27T20:34:17.702Z,8.84
2022-11-27T20:36:45.718Z,8.96
2022-11-27T20:39:20.583Z,8.93
2022-11-27T20:41:50.333Z,8.89
2022-11-27T20:44:19.345Z,8.94
2022-11-27T20:46:47.508Z,8.81
2022-11-27T20:49:15.411Z,8.99
2022-11-27T20:51:43.378Z,9.09
2022-11-27T20:54:13.177Z,9.02
2022-11-27T20:56:43.633Z,9.01
2022-11-27T20:59:13.462Z,8.86
2022-11-27T21:01:42.361Z,8.95
2022-11-27T21:04:22.548Z,8.83
2022-11-27T21:06:50.508Z,8.97
2022-11-27T21:09:21.678Z,8.93
2022-11-27T21:11:49.632Z,9.00
2022-11-27T21:14:17.652Z,8.96
2022-11-27T21:16:49.115Z,9.01
2022-11-27T21:19:20.865Z,9.00
2022-11-27T21:21:50.819Z,8.94
2022-11-27T21:24:19.752Z,8.97
2022-11-27T21:26:48.391Z,9.04
2022-11-27T21:29:16.740Z,8.97
2022-11-27T21:31:47.161Z,8.96
2022-11-27T21:34:17.090Z,9.16
2022-11-27T21:36:45.497Z,8.99
2022-11-27T21:39:20.818Z,9.00
2022-11-27T21:41:54.212Z,9.33
2022-11-27T21:44:23.505Z,9.44
2022-11-27T21:46:51.905Z,9.74
2022-11-27T21:49:20.852Z,10.02
2022-11-27T21:51:53.110Z,10.32
2022-11-27T21:54:23.851Z,10.23
2022-11-27T21:56:53.742Z,10.37
2022-11-27T21:59:23.239Z,10.23
2022-11-27T22:01:51.162Z,10.33
2022-11-27T22:04:19.128Z,10.41
2022-11-27T22:06:46.543Z,10.45
2022-11-27T22:09:15.978Z,10.49
2022-11-27T22:11:45.322Z,10.38
2022-11-27T22:14:14.517Z,10.38
2022-11-27T22:16:45.917Z,10.47
2022-11-27T22:19:14.747Z,10.45
2022-11-27T22:21:44.474Z,10.43
2022-11-27T22:24:16.844Z,10.35
2022-11-27T22:26:49.491Z,10.45
2022-11-27T22:29:18.058Z,10.48
2022-11-27T22:31:45.423Z,10.46
2022-11-27T22:34:16.593Z,10.43
2022-11-27T22:36:44.653Z,10.41
2022-11-27T22:39:12.314Z,10.45
2022-11-27T22:41:41.526Z,10.43
2022-11-27T22:44:14.242Z,10.50
2022-11-27T22:46:42.730Z,10.35
2022-11-27T22:49:13.027Z,10.59
2022-11-27T22:51:40.881Z,10.41
2022-11-27T22:54:10.997Z,10.54
2022-11-27T22:56:40.168Z,10.30
2022-11-27T22:59:31.543Z,10.52
2022-11-27T23:01:58.759Z,10.60
2022-11-27T23:04:26.678Z,10.61
2022-11-27T23:06:54.022Z,10.57
2022-11-27T23:09:21.638Z,10.62
2022-11-27T23:11:49.347Z,10.60
2022-11-27T23:14:17.296Z,10.61
2022-11-27T23:16:45.666Z,10.52
2022-11-27T23:19:13.045Z,10.58
2022-11-27T23:21:40.199Z,10.63
2022-11-27T23:24:10.552Z,10.49
2022-11-27T23:26:38.489Z,10.74
2022-11-27T23:29:05.958Z,10.75
2022-11-27T23:31:35.639Z,10.66
2022-11-27T23:34:07.812Z,10.69
2022-11-27T23:36:35.628Z,10.69
2022-11-27T23:39:05.774Z,10.65
2022-11-27T23:41:33.372Z,10.62
2022-11-27T23:44:01.682Z,10.58
2022-11-27T23:46:30.958Z,10.67
2022-11-27T23:49:00.321Z,10.63
2022-11-27T23:51:30.889Z,10.56
2022-11-27T23:53:59.088Z,10.52
2022-11-27T23:56:32.865Z,10.55
2022-11-27T23:59:01.470Z,10.57
